Flight Track Log - Related Links

Times and Time Zones

All times are in EDT time to prevent confusion due to time zone crossing. See the N327PA flight status page for this flight to view local times or setup timezone preferences in your user account.

Time Position Orientation Groundspeed Altitude Reporting Facility
EDT Latitude Longitude Course Direction KTS MPH feet Rate Location/Type
Mon 05:59:00 PM 36.5819 -79.0509 88° East  Level Estimated
Mon 06:00:00 PM 36.5827 -79.0223 88° East  Level Estimated
Mon 06:01:00 PM 36.5836 -78.9938 88° East  Level Estimated
Mon 06:02:00 PM 36.5844 -78.9653 88° East  Level Estimated
Mon 06:03:00 PM 36.5853 -78.9368 88° East  Level Estimated
Mon 06:04:00 PM 36.5861 -78.9082 88° East  Level Estimated
Mon 06:05:00 PM 36.5869 -78.8797 88° East  Level Estimated
Mon 06:06:00 PM 36.5878 -78.8512 88° East  Level Estimated
Mon 06:07:00 PM 36.5886 -78.8226 88° East  Level Estimated
Mon 06:08:00 PM 36.5894 -78.7941 88° East  Level Estimated
Mon 06:09:00 PM 36.5902 -78.7656 88° East  Level Estimated
Mon 06:10:00 PM 36.5910 -78.7370 88° East  Level Estimated
Mon 06:11:00 PM 36.5918 -78.7085 88° East  Level Estimated
Mon 06:12:00 PM 36.5925 -78.6800 88° East  Level Estimated
Mon 06:13:00 PM 36.5933 -78.6514 88° East  Level Estimated
Mon 06:14:00 PM 36.5941 -78.6229 88° East  Level Estimated
Mon 06:15:00 PM 36.5948 -78.5944 88° East  Level Estimated
Mon 06:16:00 PM 36.5956 -78.5658 88° East  Level Estimated
Mon 06:17:00 PM 36.5957 -78.5601 88° East  Level Estimated
Mon 06:18:00 PM 36.5957 -78.5601 90° East  Level Estimated
Mon 06:19:00 PM 36.5957 -78.5601 90° East  Level Estimated
Mon 06:20:00 PM 36.5957 -78.5601 90° East  Level Estimated
Mon 06:21:00 PM 36.5957 -78.5601 90° East  Level Estimated
Mon 06:22:00 PM 36.5957 -78.5601 90° East  Level Estimated
Mon 06:23:00 PM 36.5957 -78.5601 90° East  Level Estimated
Mon 06:24:00 PM 36.5957 -78.5601 90° East  Level Estimated
Mon 06:25:00 PM 36.5957 -78.5601 90° East  Level Estimated
Mon 06:26:00 PM 36.5957 -78.5601 90° East  Level Estimated
Mon 06:27:00 PM 36.5957 -78.5601 90° East  Level Estimated
Mon 06:28:00 PM 36.5957 -78.5601 90° East  Level Estimated
Mon 06:29:00 PM 36.5957 -78.5601 90° East  Level Estimated
Mon 06:30:00 PM 36.5957 -78.5601 90° East  Level Estimated
Mon 06:31:00 PM 36.5957 -78.5601 90° East  Level Estimated
Mon 06:32:00 PM 36.5957 -78.5601 90° East  Level Estimated

Login

Don't have an account? Register now (free) for customized features, flight alerts, and more!